createdAt,value
2017-10-30T00:00:30.385Z,89.81
2017-10-30T00:01:30.377Z,89.90
2017-10-30T00:02:30.372Z,89.81
2017-10-30T00:03:30.370Z,89.53
2017-10-30T00:04:30.360Z,89.81
2017-10-30T00:05:30.359Z,90.19
2017-10-30T00:06:30.346Z,90.09
2017-10-30T00:07:30.338Z,90.00
2017-10-30T00:08:30.333Z,90.09
2017-10-30T00:09:30.325Z,90.19
2017-10-30T00:10:30.320Z,90.09
2017-10-30T00:11:30.310Z,90.57
2017-10-30T00:12:30.308Z,90.28
2017-10-30T00:13:30.298Z,90.47
2017-10-30T00:14:30.291Z,90.09
2017-10-30T00:15:30.285Z,90.19
2017-10-30T00:16:30.281Z,90.47
2017-10-30T00:17:30.269Z,90.19
2017-10-30T00:18:30.266Z,89.90
2017-10-30T00:19:30.257Z,90.19
2017-10-30T00:20:30.250Z,89.90
2017-10-30T00:21:30.246Z,90.28
2017-10-30T00:22:30.243Z,90.28
2017-10-30T00:23:30.229Z,90.28
2017-10-30T00:24:30.220Z,90.19
2017-10-30T00:25:30.221Z,90.66
2017-10-30T00:26:30.208Z,90.28
2017-10-30T00:27:30.200Z,90.95
2017-10-30T00:28:30.194Z,90.76
2017-10-30T00:29:30.193Z,90.76
2017-10-30T00:30:30.178Z,90.57
2017-10-30T00:31:30.178Z,90.38
2017-10-30T00:32:30.177Z,90.76
2017-10-30T00:33:30.161Z,90.57
2017-10-30T00:34:30.155Z,90.95
2017-10-30T00:35:30.155Z,90.85
2017-10-30T00:36:30.143Z,90.66
2017-10-30T00:37:30.141Z,90.76
2017-10-30T00:38:30.131Z,91.52
2017-10-30T00:39:30.117Z,91.38
2017-10-30T00:40:30.115Z,91.09
2017-10-30T00:41:30.106Z,91.19
2017-10-30T00:42:30.101Z,91.00
2017-10-30T00:43:30.088Z,91.09
2017-10-30T00:44:30.088Z,91.75
2017-10-30T00:45:30.076Z,91.38
2017-10-30T00:46:30.077Z,91.56
2017-10-30T00:47:30.067Z,91.47
2017-10-30T00:48:30.064Z,91.56
2017-10-30T00:49:30.052Z,91.28
2017-10-30T00:50:30.069Z,91.66
2017-10-30T00:51:30.037Z,91.19
2017-10-30T00:52:30.037Z,91.09
2017-10-30T00:53:30.031Z,91.56
2017-10-30T00:54:30.021Z,91.38
2017-10-30T00:55:30.011Z,91.19
2017-10-30T00:56:30.004Z,91.00
2017-10-30T00:57:29.996Z,91.28
2017-10-30T00:58:29.991Z,91.38
2017-10-30T00:59:29.987Z,91.28
2017-10-30T01:00:29.976Z,91.38
2017-10-30T01:01:29.967Z,91.38
2017-10-30T01:02:29.962Z,91.66
2017-10-30T01:03:29.954Z,91.75
2017-10-30T01:04:29.954Z,92.23
2017-10-30T01:05:29.941Z,92.52
2017-10-30T01:06:29.936Z,92.23
2017-10-30T01:07:29.927Z,91.94
2017-10-30T01:08:29.917Z,92.04
2017-10-30T01:09:29.938Z,91.94
2017-10-30T01:10:29.905Z,91.94
2017-10-30T01:11:29.908Z,92.42
2017-10-30T01:12:29.888Z,92.61
2017-10-30T01:13:29.889Z,92.23
2017-10-30T01:14:29.880Z,92.90
2017-10-30T01:15:29.866Z,92.33
2017-10-30T01:16:29.860Z,92.52
2017-10-30T01:17:29.858Z,92.71
2017-10-30T01:18:29.852Z,92.71
2017-10-30T01:19:29.843Z,93.37
2017-10-30T01:20:29.834Z,92.99
2017-10-30T01:21:29.829Z,92.71
2017-10-30T01:22:29.821Z,92.52
2017-10-30T01:23:29.814Z,92.61
2017-10-30T01:24:29.808Z,92.42
2017-10-30T01:25:29.800Z,92.42
2017-10-30T01:26:29.796Z,92.52
2017-10-30T01:27:29.787Z,92.80
2017-10-30T01:28:29.783Z,92.52
2017-10-30T01:29:29.774Z,92.23
2017-10-30T01:30:29.770Z,92.33
2017-10-30T01:31:29.759Z,92.33
2017-10-30T01:32:29.759Z,92.14
2017-10-30T01:33:29.783Z,92.42
2017-10-30T01:34:29.741Z,92.23
2017-10-30T01:35:29.729Z,92.42
2017-10-30T01:36:29.722Z,92.23
2017-10-30T01:37:29.719Z,92.04
2017-10-30T01:38:29.717Z,92.33
2017-10-30T01:39:29.704Z,92.14
2017-10-30T01:40:29.699Z,92.33
2017-10-30T01:41:29.691Z,92.33
2017-10-30T01:42:29.686Z,92.23
2017-10-30T01:43:29.682Z,92.33
2017-10-30T01:44:29.674Z,91.66
2017-10-30T01:45:29.670Z,91.56
2017-10-30T01:46:29.656Z,91.47
2017-10-30T01:47:29.654Z,92.61
2017-10-30T01:48:29.644Z,91.75
2017-10-30T01:49:29.633Z,92.04
2017-10-30T01:50:29.627Z,92.14
2017-10-30T01:51:29.623Z,92.23
2017-10-30T01:52:29.614Z,92.14
2017-10-30T01:53:29.605Z,92.42
2017-10-30T01:54:29.605Z,92.52
2017-10-30T01:55:29.591Z,91.94
2017-10-30T01:56:29.633Z,92.23
2017-10-30T01:57:29.579Z,91.85
2017-10-30T01:58:29.573Z,92.23
2017-10-30T01:59:29.572Z,92.42
2017-10-30T02:00:29.560Z,92.33
2017-10-30T02:01:29.553Z,91.94
2017-10-30T02:02:29.543Z,91.94
2017-10-30T02:03:29.543Z,91.66
2017-10-30T02:04:29.530Z,92.23
2017-10-30T02:05:29.529Z,92.23
2017-10-30T02:06:29.518Z,92.33
2017-10-30T02:07:29.510Z,92.80
2017-10-30T02:08:29.505Z,92.33
2017-10-30T02:09:29.496Z,92.90
2017-10-30T02:10:29.491Z,92.99
2017-10-30T02:11:29.480Z,92.71
2017-10-30T02:12:29.475Z,92.61
2017-10-30T02:13:29.469Z,92.90
2017-10-30T02:14:29.461Z,93.18
2017-10-30T02:15:29.455Z,92.99
2017-10-30T02:16:29.445Z,92.90
2017-10-30T02:17:29.442Z,92.90
2017-10-30T02:18:29.435Z,93.46
2017-10-30T02:19:29.429Z,93.08
2017-10-30T02:20:29.420Z,93.18
2017-10-30T02:21:29.413Z,93.46
2017-10-30T02:22:29.406Z,93.08
2017-10-30T02:23:29.399Z,93.27
2017-10-30T02:24:29.396Z,93.18
2017-10-30T02:25:29.397Z,92.90
2017-10-30T02:26:29.392Z,92.42
2017-10-30T02:27:29.375Z,92.42
2017-10-30T02:28:29.367Z,92.23
2017-10-30T02:29:29.361Z,92.52
2017-10-30T02:30:29.352Z,92.42
2017-10-30T02:31:29.340Z,92.94
2017-10-30T02:32:29.332Z,92.47
2017-10-30T02:33:29.330Z,92.99
2017-10-30T02:34:29.326Z,92.33
2017-10-30T02:35:29.316Z,92.23
2017-10-30T02:36:29.310Z,92.23
2017-10-30T02:37:29.309Z,92.71
2017-10-30T02:38:29.308Z,92.99
2017-10-30T02:39:29.290Z,93.37
2017-10-30T02:40:29.283Z,92.42
2017-10-30T02:41:29.287Z,92.99
2017-10-30T02:42:29.270Z,92.99
2017-10-30T02:43:29.262Z,92.80
2017-10-30T02:44:29.255Z,92.99
2017-10-30T02:45:29.248Z,92.99
2017-10-30T02:46:29.242Z,92.99
2017-10-30T02:47:29.234Z,93.75
2017-10-30T02:48:29.227Z,93.56
2017-10-30T02:49:29.222Z,92.99
2017-10-30T02:50:29.215Z,93.37
2017-10-30T02:51:29.206Z,93.08
2017-10-30T02:52:29.202Z,93.27
2017-10-30T02:53:29.198Z,93.37
2017-10-30T02:54:29.191Z,93.37
2017-10-30T02:55:29.182Z,93.46
2017-10-30T02:56:29.173Z,93.46
2017-10-30T02:57:29.167Z,93.18
2017-10-30T02:58:29.163Z,93.37
2017-10-30T02:59:29.154Z,93.56
2017-10-30T03:00:29.146Z,93.75
2017-10-30T03:01:29.141Z,93.75
2017-10-30T03:02:29.135Z,93.46
2017-10-30T03:03:29.129Z,94.03
2017-10-30T03:04:29.118Z,94.13
2017-10-30T03:05:29.114Z,94.23
2017-10-30T03:06:29.104Z,93.75
2017-10-30T03:07:29.099Z,94.03
2017-10-30T03:08:29.094Z,93.84
2017-10-30T03:09:29.085Z,93.75
2017-10-30T03:10:29.078Z,93.75
2017-10-30T03:11:29.069Z,93.75
2017-10-30T03:12:29.064Z,94.32
2017-10-30T03:13:29.055Z,93.84
2017-10-30T03:14:29.049Z,94.23
2017-10-30T03:15:29.043Z,94.13
2017-10-30T03:16:29.037Z,94.70
2017-10-30T03:17:29.029Z,94.13
2017-10-30T03:18:29.026Z,93.84
2017-10-30T03:19:29.015Z,94.51
2017-10-30T03:20:29.009Z,94.60
2017-10-30T03:21:29.001Z,94.42
2017-10-30T03:22:28.995Z,94.60
2017-10-30T03:23:28.988Z,94.70
2017-10-30T03:24:28.984Z,94.79
2017-10-30T03:25:28.973Z,94.42
2017-10-30T03:26:28.968Z,94.60
2017-10-30T03:27:28.960Z,94.51
2017-10-30T03:28:28.955Z,94.79
2017-10-30T03:29:28.943Z,95.27
2017-10-30T03:30:28.951Z,94.60
2017-10-30T03:31:28.934Z,93.94
2017-10-30T03:32:28.928Z,94.89
2017-10-30T03:33:28.917Z,94.51
2017-10-30T03:34:28.914Z,94.42
2017-10-30T03:35:28.904Z,94.70
2017-10-30T03:36:28.899Z,94.13
2017-10-30T03:37:28.895Z,94.13
2017-10-30T03:38:28.888Z,94.79
2017-10-30T03:39:28.878Z,94.98
2017-10-30T03:40:28.872Z,94.79
2017-10-30T03:41:28.865Z,94.60
2017-10-30T03:42:28.859Z,94.70
2017-10-30T03:43:28.851Z,93.84
2017-10-30T03:44:28.844Z,94.03
2017-10-30T03:45:28.836Z,94.13
2017-10-30T03:46:28.830Z,94.03
2017-10-30T03:47:28.821Z,94.13
2017-10-30T03:48:28.816Z,94.32
2017-10-30T03:49:28.810Z,94.32
2017-10-30T03:50:28.804Z,94.60
2017-10-30T03:51:28.795Z,94.42
2017-10-30T03:52:28.789Z,93.84
2017-10-30T03:53:28.784Z,94.13
2017-10-30T03:54:28.776Z,93.84
2017-10-30T03:55:28.768Z,94.32
2017-10-30T03:56:28.760Z,94.13
2017-10-30T03:57:28.754Z,94.03
2017-10-30T03:58:28.751Z,93.84
2017-10-30T03:59:28.742Z,93.84
2017-10-30T04:00:28.734Z,94.42
2017-10-30T04:01:28.726Z,94.13
2017-10-30T04:02:28.719Z,93.65
2017-10-30T04:03:28.713Z,93.75
2017-10-30T04:04:28.706Z,94.13
2017-10-30T04:05:28.700Z,94.13
2017-10-30T04:06:28.694Z,93.94
2017-10-30T04:07:28.684Z,93.46
2017-10-30T04:08:28.681Z,93.46
2017-10-30T04:09:28.673Z,93.56
2017-10-30T04:10:28.669Z,94.32
2017-10-30T04:11:28.656Z,93.94
2017-10-30T04:12:28.653Z,93.27
2017-10-30T04:13:28.646Z,93.46
2017-10-30T04:14:28.639Z,93.75
2017-10-30T04:15:28.630Z,94.32
2017-10-30T04:16:28.624Z,93.46
2017-10-30T04:17:28.618Z,93.27
2017-10-30T04:18:28.616Z,93.46
2017-10-30T04:19:28.603Z,93.37
2017-10-30T04:20:28.599Z,93.08
2017-10-30T04:21:28.590Z,93.18
2017-10-30T04:22:28.582Z,93.56
2017-10-30T04:23:28.578Z,93.84
2017-10-30T04:24:28.568Z,92.80
2017-10-30T04:25:28.561Z,92.80
2017-10-30T04:26:28.557Z,93.18
2017-10-30T04:27:28.549Z,93.37
2017-10-30T04:28:28.543Z,93.37
2017-10-30T04:29:28.537Z,93.46
2017-10-30T04:30:28.529Z,93.27
2017-10-30T04:31:28.522Z,92.99
2017-10-30T04:32:28.512Z,93.18
2017-10-30T04:33:28.509Z,92.99
2017-10-30T04:34:28.502Z,93.27
2017-10-30T04:35:28.495Z,93.08
2017-10-30T04:36:28.502Z,93.37
2017-10-30T04:37:28.482Z,93.65
2017-10-30T04:38:28.476Z,93.27
2017-10-30T04:39:28.465Z,93.56
2017-10-30T04:40:28.461Z,93.75
2017-10-30T04:41:28.455Z,93.18
2017-10-30T04:42:28.448Z,93.27
2017-10-30T04:43:28.440Z,92.99
2017-10-30T04:44:28.441Z,93.08
2017-10-30T04:45:28.427Z,93.46
2017-10-30T04:46:28.421Z,92.99
2017-10-30T04:47:28.419Z,93.18
2017-10-30T04:48:28.405Z,92.71
2017-10-30T04:49:28.403Z,92.71
2017-10-30T04:50:28.393Z,93.27
2017-10-30T04:51:28.390Z,93.08
2017-10-30T04:52:28.380Z,93.18
2017-10-30T04:53:28.375Z,93.08
2017-10-30T04:54:28.369Z,92.80
2017-10-30T04:55:28.361Z,92.61
2017-10-30T04:56:28.353Z,92.90
2017-10-30T04:57:28.347Z,93.46
2017-10-30T04:58:28.340Z,93.08
2017-10-30T04:59:28.334Z,93.18
2017-10-30T05:00:28.326Z,93.08
2017-10-30T05:01:28.319Z,92.90
2017-10-30T05:02:28.312Z,92.42
2017-10-30T05:03:28.309Z,92.61
2017-10-30T05:04:28.299Z,93.08
2017-10-30T05:05:28.294Z,93.27
2017-10-30T05:06:28.286Z,93.18
2017-10-30T05:07:28.281Z,92.80
2017-10-30T05:08:28.274Z,92.61
2017-10-30T05:09:28.273Z,92.42
2017-10-30T05:10:28.261Z,92.33
2017-10-30T05:11:28.257Z,92.42
2017-10-30T05:12:28.247Z,93.08
2017-10-30T05:13:28.242Z,92.99
2017-10-30T05:14:28.239Z,93.37
2017-10-30T05:15:28.227Z,93.08
2017-10-30T05:16:28.220Z,93.08
2017-10-30T05:17:28.213Z,93.37
2017-10-30T05:18:28.208Z,93.84
2017-10-30T05:19:28.204Z,93.94
2017-10-30T05:20:28.194Z,93.18
2017-10-30T05:21:28.186Z,93.18
2017-10-30T05:22:28.180Z,93.46
2017-10-30T05:23:28.176Z,93.27
2017-10-30T05:24:28.165Z,93.18
2017-10-30T05:25:28.159Z,93.18
2017-10-30T05:26:28.155Z,93.56
2017-10-30T05:27:28.146Z,93.65
2017-10-30T05:28:28.139Z,93.46
2017-10-30T05:29:28.138Z,93.27
2017-10-30T05:30:28.126Z,93.18
2017-10-30T05:31:28.120Z,93.75
2017-10-30T05:32:28.111Z,93.56
2017-10-30T05:33:28.106Z,93.56
2017-10-30T05:34:28.101Z,93.56
2017-10-30T05:35:28.091Z,93.27
2017-10-30T05:36:28.083Z,93.37
2017-10-30T05:37:28.077Z,94.03
2017-10-30T05:38:28.071Z,93.46
2017-10-30T05:39:28.067Z,93.46
2017-10-30T05:40:28.057Z,93.65
2017-10-30T05:41:28.050Z,93.56
2017-10-30T05:42:28.044Z,92.80
2017-10-30T05:43:28.036Z,93.46
2017-10-30T05:44:28.033Z,93.56
2017-10-30T05:45:28.022Z,94.03
2017-10-30T05:46:28.016Z,93.37
2017-10-30T05:47:28.010Z,93.56
2017-10-30T05:48:28.002Z,93.94
2017-10-30T05:49:27.998Z,93.84
2017-10-30T05:50:27.990Z,93.46
2017-10-30T05:51:27.982Z,94.32
2017-10-30T05:52:27.975Z,93.94
2017-10-30T05:53:27.968Z,94.03
2017-10-30T05:54:27.959Z,93.94
2017-10-30T05:55:27.965Z,93.84
2017-10-30T05:56:27.951Z,94.03
2017-10-30T05:57:27.941Z,93.75
2017-10-30T05:58:27.933Z,94.03
2017-10-30T05:59:27.927Z,93.56
2017-10-30T06:00:27.920Z,94.32
2017-10-30T06:01:27.911Z,94.13
2017-10-30T06:02:27.910Z,93.65
2017-10-30T06:03:27.898Z,93.56
2017-10-30T06:04:27.921Z,93.18
2017-10-30T06:05:27.888Z,94.51
2017-10-30T06:06:27.883Z,93.94
2017-10-30T06:07:27.873Z,94.13
2017-10-30T06:08:27.866Z,94.32
2017-10-30T06:09:27.865Z,93.46
2017-10-30T06:10:27.853Z,93.65
2017-10-30T06:11:27.845Z,93.65
2017-10-30T06:12:27.838Z,94.03
2017-10-30T06:13:27.830Z,93.94
2017-10-30T06:14:27.825Z,94.42
2017-10-30T06:15:27.817Z,93.37
2017-10-30T06:16:27.811Z,93.65
2017-10-30T06:17:27.803Z,94.32
2017-10-30T06:18:27.797Z,93.37
2017-10-30T06:19:27.790Z,93.75
2017-10-30T06:20:27.780Z,94.32
2017-10-30T06:21:27.779Z,93.94
2017-10-30T06:22:27.769Z,94.03
2017-10-30T06:23:27.759Z,93.27
2017-10-30T06:24:27.761Z,93.75
2017-10-30T06:25:27.749Z,93.65
2017-10-30T06:26:27.742Z,93.65
2017-10-30T06:27:27.738Z,94.13
2017-10-30T06:28:27.728Z,93.37
2017-10-30T06:29:27.728Z,94.23
2017-10-30T06:30:27.718Z,93.75
2017-10-30T06:31:27.708Z,94.32
2017-10-30T06:32:27.705Z,93.65
2017-10-30T06:33:27.695Z,93.46
2017-10-30T06:34:27.690Z,93.27
2017-10-30T06:35:27.681Z,93.46
2017-10-30T06:36:27.676Z,92.80
2017-10-30T06:37:27.669Z,93.27
2017-10-30T06:38:27.661Z,93.37
2017-10-30T06:39:27.653Z,93.08
2017-10-30T06:40:27.647Z,93.37
2017-10-30T06:41:27.644Z,92.99
2017-10-30T06:42:27.634Z,93.56
2017-10-30T06:43:27.625Z,92.71
2017-10-30T06:44:27.620Z,93.27
2017-10-30T06:45:27.616Z,93.56
2017-10-30T06:46:27.610Z,93.46
2017-10-30T06:47:27.600Z,92.99
2017-10-30T06:48:27.605Z,94.13
2017-10-30T06:49:27.588Z,93.75
2017-10-30T06:50:27.581Z,93.37
2017-10-30T06:51:27.575Z,93.08
2017-10-30T06:52:27.565Z,93.18
2017-10-30T06:53:27.560Z,93.27
2017-10-30T06:54:27.552Z,93.08
2017-10-30T06:55:27.545Z,93.37
2017-10-30T06:56:27.538Z,93.18
2017-10-30T06:57:27.534Z,93.08
2017-10-30T06:58:27.525Z,92.99
2017-10-30T06:59:27.526Z,92.42
2017-10-30T07:00:27.510Z,92.99
2017-10-30T07:01:27.505Z,92.42
2017-10-30T07:02:27.497Z,93.27
2017-10-30T07:03:27.492Z,92.99
2017-10-30T07:04:27.486Z,92.90
2017-10-30T07:05:27.479Z,93.27
2017-10-30T07:06:27.471Z,93.18
2017-10-30T07:07:27.464Z,93.18
2017-10-30T07:08:27.457Z,93.08
2017-10-30T07:09:27.454Z,93.18
2017-10-30T07:10:27.444Z,92.90
2017-10-30T07:11:27.442Z,92.99
2017-10-30T07:12:27.435Z,92.90
2017-10-30T07:13:27.425Z,93.08
2017-10-30T07:14:27.420Z,92.71
2017-10-30T07:15:27.416Z,92.42
2017-10-30T07:16:27.402Z,92.71
2017-10-30T07:17:27.397Z,92.90
2017-10-30T07:18:27.392Z,92.33
2017-10-30T07:19:27.387Z,92.80
2017-10-30T07:20:27.381Z,92.61
2017-10-30T07:21:27.374Z,92.52
2017-10-30T07:22:27.364Z,92.52
2017-10-30T07:23:27.364Z,92.42
2017-10-30T07:24:27.351Z,92.90
2017-10-30T07:25:27.340Z,92.42
2017-10-30T07:26:27.345Z,92.99
2017-10-30T07:27:27.332Z,92.71
2017-10-30T07:28:27.324Z,92.61
2017-10-30T07:29:27.324Z,92.80
2017-10-30T07:30:27.312Z,92.33
2017-10-30T07:31:27.308Z,92.42
2017-10-30T07:32:27.299Z,92.42
2017-10-30T07:33:27.292Z,92.42
2017-10-30T07:34:27.286Z,92.42
2017-10-30T07:35:27.280Z,92.52
2017-10-30T07:36:27.275Z,92.14
2017-10-30T07:37:27.266Z,92.80
2017-10-30T07:38:27.259Z,92.61
2017-10-30T07:39:27.260Z,92.61
2017-10-30T07:40:27.246Z,92.52
2017-10-30T07:41:27.240Z,92.80
2017-10-30T07:42:27.235Z,92.42
2017-10-30T07:43:27.227Z,92.80
2017-10-30T07:44:27.221Z,92.99
2017-10-30T07:45:27.214Z,92.71
2017-10-30T07:46:27.209Z,92.52
2017-10-30T07:47:27.199Z,92.14
2017-10-30T07:48:27.197Z,92.52
2017-10-30T07:49:27.190Z,91.85
2017-10-30T07:50:27.183Z,92.33
2017-10-30T07:51:27.176Z,92.47
2017-10-30T07:52:27.168Z,91.89
2017-10-30T07:53:27.162Z,92.37
2017-10-30T07:54:27.156Z,92.52
2017-10-30T07:55:27.149Z,92.33
2017-10-30T07:56:27.145Z,91.66
2017-10-30T07:57:27.139Z,92.23
2017-10-30T07:58:27.162Z,92.61
2017-10-30T07:59:27.177Z,91.75
2017-10-30T08:00:27.117Z,91.28
2017-10-30T08:01:27.139Z,91.56
2017-10-30T08:02:27.106Z,91.38
2017-10-30T08:03:27.095Z,91.66
2017-10-30T08:04:27.094Z,91.38
2017-10-30T08:05:27.085Z,91.47
2017-10-30T08:06:27.081Z,91.66
2017-10-30T08:07:27.078Z,91.38
2017-10-30T08:08:27.076Z,91.38
2017-10-30T08:09:27.063Z,91.38
2017-10-30T08:10:27.056Z,91.09
2017-10-30T08:11:27.048Z,91.52
2017-10-30T08:12:27.047Z,91.14
2017-10-30T08:13:27.037Z,90.57
2017-10-30T08:14:27.026Z,91.04
2017-10-30T08:15:27.023Z,90.09
2017-10-30T08:16:27.018Z,90.19
2017-10-30T08:17:27.011Z,90.09
2017-10-30T08:18:27.002Z,90.47
2017-10-30T08:19:27.003Z,90.09
2017-10-30T08:20:26.989Z,90.09
2017-10-30T08:21:26.984Z,90.09
2017-10-30T08:22:26.979Z,90.00
2017-10-30T08:23:26.965Z,89.53
2017-10-30T08:24:26.970Z,89.53
2017-10-30T08:25:26.960Z,89.53
2017-10-30T08:26:26.970Z,89.62
2017-10-30T08:27:26.949Z,89.62
2017-10-30T08:28:26.941Z,89.53
2017-10-30T08:29:26.936Z,89.43
2017-10-30T08:30:26.928Z,88.95
2017-10-30T08:31:26.923Z,88.76
2017-10-30T08:32:26.916Z,89.05
2017-10-30T08:33:26.911Z,89.24
2017-10-30T08:34:26.908Z,88.86
2017-10-30T08:35:26.899Z,88.57
2017-10-30T08:36:26.898Z,89.24
2017-10-30T08:37:26.893Z,88.67
2017-10-30T08:38:26.882Z,89.43
2017-10-30T08:39:26.878Z,88.67
2017-10-30T08:40:26.870Z,88.39
2017-10-30T08:41:26.860Z,88.10
2017-10-30T08:42:26.860Z,88.10
2017-10-30T08:43:26.850Z,87.53
2017-10-30T08:44:26.847Z,88.20
2017-10-30T08:45:26.840Z,88.39
2017-10-30T08:46:26.833Z,88.20
2017-10-30T08:47:26.827Z,87.91
2017-10-30T08:48:26.821Z,88.39
2017-10-30T08:49:26.819Z,88.29
2017-10-30T08:50:26.811Z,87.82
2017-10-30T08:51:26.838Z,87.82
2017-10-30T08:52:26.798Z,87.62
2017-10-30T08:53:26.793Z,87.01
2017-10-30T08:54:26.787Z,87.15
2017-10-30T08:55:26.782Z,87.05
2017-10-30T08:56:26.774Z,86.11
2017-10-30T08:57:26.769Z,86.58
2017-10-30T08:58:26.758Z,86.53
2017-10-30T08:59:26.766Z,85.86
2017-10-30T09:00:26.746Z,85.68
2017-10-30T09:01:26.746Z,86.05
2017-10-30T09:02:26.741Z,85.11
2017-10-30T09:03:26.737Z,84.82
2017-10-30T09:04:26.728Z,84.72
2017-10-30T09:05:26.725Z,84.63
2017-10-30T09:06:26.728Z,84.91
2017-10-30T09:07:26.713Z,84.91
2017-10-30T09:08:26.707Z,84.06
2017-10-30T09:09:26.710Z,84.25
2017-10-30T09:10:26.696Z,84.16
2017-10-30T09:11:26.688Z,84.25
2017-10-30T09:12:26.688Z,84.06
2017-10-30T09:13:26.679Z,84.72
2017-10-30T09:14:26.674Z,84.34
2017-10-30T09:15:26.669Z,84.72
2017-10-30T09:16:26.670Z,83.97
2017-10-30T09:17:26.660Z,83.20
2017-10-30T09:18:26.654Z,83.59
2017-10-30T09:19:26.653Z,83.01
2017-10-30T09:20:26.640Z,83.01
2017-10-30T09:21:26.637Z,82.73
2017-10-30T09:22:26.632Z,82.82
2017-10-30T09:23:26.626Z,83.78
2017-10-30T09:25:26.619Z,83.59
2017-10-30T09:26:26.610Z,82.92
2017-10-30T09:27:26.603Z,82.82
2017-10-30T09:28:26.601Z,83.01
2017-10-30T09:29:26.621Z,83.01
2017-10-30T09:30:26.591Z,83.01
2017-10-30T09:31:26.583Z,82.16
2017-10-30T09:32:26.580Z,82.29
2017-10-30T09:33:26.638Z,81.73
2017-10-30T09:34:26.569Z,81.63
2017-10-30T09:35:26.558Z,82.01
2017-10-30T09:36:26.571Z,80.77
2017-10-30T09:37:26.550Z,81.25
2017-10-30T09:38:26.543Z,81.63
2017-10-30T09:39:26.546Z,80.77
2017-10-30T09:40:26.557Z,80.21
2017-10-30T09:41:26.531Z,80.11
2017-10-30T09:42:26.528Z,79.83
2017-10-30T09:43:26.519Z,80.11
2017-10-30T09:44:26.541Z,79.35
2017-10-30T09:45:26.505Z,78.78
2017-10-30T09:46:26.508Z,78.21
2017-10-30T09:47:26.498Z,77.64
2017-10-30T09:48:26.497Z,78.02
2017-10-30T09:49:26.493Z,78.30
2017-10-30T09:50:26.480Z,78.78
2017-10-30T09:51:26.479Z,77.83
2017-10-30T09:52:26.472Z,78.50
2017-10-30T09:53:26.469Z,78.11
2017-10-30T09:54:26.475Z,77.83
2017-10-30T09:55:26.457Z,77.73
2017-10-30T09:56:26.451Z,77.17
2017-10-30T09:57:26.452Z,76.88
2017-10-30T09:58:26.445Z,76.40
2017-10-30T09:59:26.440Z,76.31
2017-10-30T10:00:26.432Z,76.40
2017-10-30T10:01:26.425Z,75.36
2017-10-30T10:02:26.423Z,74.79
2017-10-30T10:03:26.444Z,74.92
2017-10-30T10:04:26.442Z,74.22
2017-10-30T10:05:26.409Z,74.60
2017-10-30T10:06:26.401Z,74.73
2017-10-30T10:07:26.466Z,74.54
2017-10-30T10:08:26.388Z,74.22
2017-10-30T10:09:26.391Z,74.26
2017-10-30T10:10:26.470Z,75.11
2017-10-30T10:11:26.376Z,74.26
2017-10-30T10:12:26.374Z,73.78
2017-10-30T10:13:26.367Z,73.78
2017-10-30T10:14:26.367Z,73.02
2017-10-30T10:15:26.358Z,73.69
2017-10-30T10:16:26.357Z,73.02
2017-10-30T10:17:26.355Z,72.74
2017-10-30T10:18:26.344Z,72.26
2017-10-30T10:19:26.339Z,72.35
2017-10-30T10:20:26.334Z,72.45
2017-10-30T10:21:26.381Z,71.37
2017-10-30T10:22:26.327Z,70.74
2017-10-30T10:23:26.324Z,69.50
2017-10-30T10:24:26.320Z,69.02
2017-10-30T10:25:26.314Z,69.12
2017-10-30T10:26:26.309Z,69.21
2017-10-30T10:27:26.302Z,69.56
2017-10-30T10:28:26.297Z,69.21
2017-10-30T10:29:26.297Z,70.07
2017-10-30T10:30:26.284Z,69.98
2017-10-30T10:31:26.283Z,69.88
2017-10-30T10:32:26.280Z,69.69
2017-10-30T10:33:26.274Z,69.50
2017-10-30T10:34:26.277Z,69.31
2017-10-30T10:35:26.262Z,69.21
2017-10-30T10:36:26.264Z,69.31
2017-10-30T10:37:26.256Z,68.87
2017-10-30T10:38:26.255Z,68.21
2017-10-30T10:39:26.251Z,68.11
2017-10-30T10:40:26.247Z,67.82
2017-10-30T10:41:26.239Z,68.40
2017-10-30T10:42:26.236Z,68.11
2017-10-30T10:43:26.235Z,68.21
2017-10-30T10:44:26.225Z,67.92
2017-10-30T10:45:26.229Z,67.35
2017-10-30T10:46:26.219Z,67.25
2017-10-30T10:47:26.216Z,67.35
2017-10-30T10:48:26.208Z,67.35
2017-10-30T10:49:26.207Z,66.78
2017-10-30T10:50:26.202Z,65.92
2017-10-30T10:51:26.197Z,64.50
2017-10-30T10:52:26.194Z,64.08
2017-10-30T10:53:26.194Z,64.75
2017-10-30T10:54:26.188Z,64.65
2017-10-30T10:55:26.180Z,65.03
2017-10-30T10:56:26.175Z,65.22
2017-10-30T10:57:26.173Z,64.50
2017-10-30T10:58:26.176Z,64.97
2017-10-30T10:59:26.168Z,63.92
2017-10-30T11:00:26.161Z,64.50
2017-10-30T11:01:26.157Z,64.37
2017-10-30T11:02:26.152Z,64.50
2017-10-30T11:03:26.147Z,64.02
2017-10-30T11:04:26.150Z,64.02
2017-10-30T11:05:26.137Z,64.02
2017-10-30T11:06:26.157Z,64.31
2017-10-30T11:07:26.130Z,63.54
2017-10-30T11:08:26.126Z,63.83
2017-10-30T11:09:26.128Z,62.59
2017-10-30T11:10:26.120Z,62.72
2017-10-30T11:11:26.114Z,62.59
2017-10-30T11:12:26.111Z,62.91
2017-10-30T11:13:26.107Z,62.43
2017-10-30T11:14:26.109Z,62.69
2017-10-30T11:15:26.098Z,62.78
2017-10-30T11:16:26.096Z,63.07
2017-10-30T11:17:26.095Z,61.55
2017-10-30T11:18:26.089Z,61.74
2017-10-30T11:19:26.086Z,61.96
2017-10-30T11:20:26.085Z,61.83
2017-10-30T11:21:26.082Z,61.93
2017-10-30T11:22:26.076Z,61.74
2017-10-30T11:23:26.070Z,61.93
2017-10-30T11:24:26.067Z,61.74
2017-10-30T11:25:26.074Z,61.74
2017-10-30T11:26:26.056Z,60.41
2017-10-30T11:27:26.052Z,60.97
2017-10-30T11:28:26.051Z,61.74
2017-10-30T11:29:26.065Z,61.83
2017-10-30T11:30:26.041Z,60.44
2017-10-30T11:31:26.038Z,60.72
2017-10-30T11:32:26.035Z,59.67
2017-10-30T11:33:26.032Z,60.05
2017-10-30T11:34:26.031Z,59.96
2017-10-30T11:35:26.027Z,60.05
2017-10-30T11:36:26.034Z,60.53
2017-10-30T11:37:26.024Z,60.05
2017-10-30T11:38:26.014Z,60.24
2017-10-30T11:39:26.012Z,59.89
2017-10-30T11:40:26.009Z,59.20
2017-10-30T11:41:26.007Z,59.39
2017-10-30T11:42:26.001Z,59.20
2017-10-30T11:43:26.003Z,59.58
2017-10-30T11:44:25.995Z,59.01
2017-10-30T11:45:25.992Z,58.25
2017-10-30T11:46:25.989Z,58.53
2017-10-30T11:47:25.984Z,59.29
2017-10-30T11:48:25.982Z,58.79
2017-10-30T11:49:25.980Z,58.88
2017-10-30T11:50:25.978Z,59.55
2017-10-30T11:51:25.975Z,58.98
2017-10-30T11:52:25.970Z,59.07
2017-10-30T11:53:25.969Z,58.12
2017-10-30T11:54:25.960Z,56.70
2017-10-30T11:55:25.957Z,56.22
2017-10-30T11:56:25.951Z,56.51
2017-10-30T11:57:25.959Z,56.53
2017-10-30T11:58:25.949Z,55.77
2017-10-30T11:59:25.960Z,55.20
2017-10-30T12:00:25.937Z,55.77
2017-10-30T12:01:25.946Z,55.20
2017-10-30T12:02:25.940Z,55.77
2017-10-30T12:03:25.934Z,56.05
2017-10-30T12:04:25.966Z,55.77
2017-10-30T12:05:25.930Z,55.01
2017-10-30T12:06:25.916Z,54.82
2017-10-30T12:07:25.908Z,54.53
2017-10-30T12:08:25.925Z,53.77
2017-10-30T12:09:25.908Z,55.01
2017-10-30T12:10:25.907Z,55.20
2017-10-30T12:11:25.894Z,55.10
2017-10-30T12:12:25.887Z,56.05
2017-10-30T12:13:25.890Z,55.58
2017-10-30T12:14:25.886Z,55.77
2017-10-30T12:15:25.881Z,54.91
2017-10-30T12:16:25.878Z,54.91
2017-10-30T12:17:25.877Z,55.04
2017-10-30T12:18:25.874Z,54.27
2017-10-30T12:19:25.870Z,53.87
2017-10-30T12:20:25.866Z,53.30
2017-10-30T12:21:25.866Z,53.11
2017-10-30T12:22:25.859Z,53.77
2017-10-30T12:23:25.856Z,54.79
2017-10-30T12:24:25.866Z,55.96
2017-10-30T12:25:25.849Z,57.07
2017-10-30T12:26:25.842Z,56.41
2017-10-30T12:27:25.839Z,56.34
2017-10-30T12:28:25.865Z,55.87
2017-10-30T12:29:25.837Z,56.15
2017-10-30T12:30:25.831Z,55.77
2017-10-30T12:31:25.829Z,55.77
2017-10-30T12:32:25.824Z,55.58
2017-10-30T12:33:25.820Z,55.77
2017-10-30T12:34:25.821Z,56.53
2017-10-30T12:35:25.812Z,55.01
2017-10-30T12:36:25.808Z,55.58
2017-10-30T12:37:25.805Z,55.77
2017-10-30T12:38:25.798Z,55.08
2017-10-30T12:39:25.797Z,55.17
2017-10-30T12:40:25.796Z,54.89
2017-10-30T12:41:25.793Z,54.89
2017-10-30T12:42:25.786Z,54.60
2017-10-30T12:43:25.784Z,54.89
2017-10-30T12:44:25.777Z,54.60
2017-10-30T12:45:25.777Z,54.79
2017-10-30T12:46:25.770Z,55.55
2017-10-30T12:47:25.767Z,54.98
2017-10-30T12:48:25.762Z,54.79
2017-10-30T12:49:25.759Z,55.55
2017-10-30T12:50:25.758Z,55.65
2017-10-30T12:51:25.750Z,55.55
2017-10-30T12:52:25.750Z,54.98
2017-10-30T12:53:25.741Z,55.17